Time;durP1;ratioP1;P1;durP2;ratioP2;P2;SDS_P1;SDS_P2;PMS_P1;PMS_P2;Temp;Humidity;BMP_temperature;BMP_pressure;BME280_temperature;BME280_humidity;BME280_pressure;Samples;Min_cycle;Max_cycle;Signal;HPM_P1;HPM_P2
2022/01/13 00:01:21;;;;;;;33.13;23.33;;;12.90;96.80;;;13.45;45.30;103679.19;4890658;28;97823;-54
2022/01/13 00:03:48;;;;;;;33.90;21.83;;;12.90;93.90;;;13.30;46.00;103673.00;4896654;28;100460;-51
2022/01/13 00:06:14;;;;;;;35.10;23.37;;;12.60;94.90;;;12.89;46.80;103674.69;4890203;28;99027;-49
2022/01/13 00:08:40;;;;;;;37.03;24.10;;;12.10;95.50;;;12.73;47.25;103669.34;4890084;28;97989;-46
2022/01/13 00:11:06;;;;;;;37.17;23.87;;;11.80;96.10;;;12.79;46.96;103671.13;4887036;28;99839;-53
2022/01/13 00:13:45;;;;;;;36.27;24.30;;;11.90;97.40;;;12.58;47.80;103677.22;4888601;28;109066;-52
2022/01/13 00:16:39;;;;;;;31.53;22.37;;;11.70;96.10;;;12.53;48.38;103681.63;4889285;28;98006;-51
2022/01/13 00:21:59;;;;;;;29.27;19.53;;;11.50;96.60;;;12.54;47.73;103686.03;4894318;28;97247;-52
2022/01/13 00:24:25;;;;;;;35.77;23.63;;;11.60;96.90;;;12.39;48.13;103680.69;4888578;28;103358;-49
2022/01/13 00:26:53;;;;;;;37.37;23.80;;;11.50;96.90;;;12.26;48.71;103678.84;4893271;28;98011;-55
2022/01/13 00:29:26;;;;;;;29.73;19.83;;;11.30;97.00;;;12.15;49.27;103679.69;4885634;28;98323;-48
2022/01/13 00:31:52;;;;;;;35.83;23.17;;;11.20;97.30;;;12.23;46.93;103685.00;4893287;28;97401;-46
2022/01/13 00:34:18;;;;;;;31.23;21.27;;;11.40;96.80;;;12.39;49.57;103701.84;4892361;28;103306;-52
2022/01/13 00:36:44;;;;;;;35.37;22.90;;;11.60;98.50;;;12.54;48.95;103693.97;4879188;28;102089;-47
2022/01/13 00:39:11;;;;;;;31.90;22.10;;;11.80;98.40;;;12.62;48.87;103702.84;4887592;28;98125;-51
2022/01/13 00:41:38;;;;;;;34.60;23.03;;;12.00;97.10;;;12.74;48.68;103704.69;4888747;28;97970;-52
2022/01/13 00:44:07;;;;;;;30.57;22.13;;;12.10;97.60;;;12.79;48.36;103703.81;4886578;28;97397;-48
2022/01/13 00:46:43;;;;;;;27.37;21.63;;;12.10;97.60;;;12.86;47.08;103699.38;4890462;28;99254;-48
2022/01/13 00:49:12;;;;;;;22.00;15.77;;;12.20;95.80;;;12.90;48.01;103705.59;4888593;28;96970;-53
2022/01/13 00:51:39;;;;;;;25.83;18.87;;;12.10;97.00;;;12.90;48.27;103700.31;4889191;28;98624;-50
2022/01/13 00:54:07;;;;;;;26.20;19.97;;;12.10;97.40;;;13.00;47.70;103713.56;4908182;28;98417;-50
2022/01/13 00:56:35;;;;;;;28.50;21.27;;;12.20;96.50;;;13.11;47.85;103705.63;4917645;28;96642;-52
2022/01/13 00:59:07;;;;;;;28.43;20.50;;;12.40;97.60;;;13.20;47.61;103711.00;4895565;28;97271;-49
2022/01/13 01:01:35;;;;;;;27.90;21.93;;;12.60;97.20;;;13.34;47.13;103696.00;4914053;28;97885;-46
2022/01/13 01:04:04;;;;;;;31.27;22.53;;;12.80;96.50;;;13.44;47.10;103698.63;4904672;28;97539;-48
2022/01/13 01:06:30;;;;;;;31.13;22.53;;;12.90;96.10;;;13.39;45.92;103701.31;4910580;28;97635;-50
2022/01/13 01:08:56;;;;;;;32.77;22.70;;;12.80;94.20;;;13.33;46.00;103702.19;4911006;28;97129;-46
2022/01/13 01:11:25;;;;;;;27.20;20.47;;;12.60;94.80;;;13.36;46.95;103696.88;4909342;28;99608;-47
2022/01/13 01:13:52;;;;;;;31.03;21.77;;;12.60;96.80;;;13.41;46.94;103699.53;4913815;28;98746;-53
2022/01/13 01:16:18;;;;;;;27.83;21.40;;;12.70;96.20;;;13.43;46.96;103696.88;4922260;28;97010;-52
2022/01/13 01:31:34;;;;;;;18.73;12.03;;;12.70;95.00;;;13.40;46.98;103709.25;4909869;28;102426;-49
2022/01/13 01:34:23;;;;;;;16.53;12.27;;;12.60;96.10;;;13.34;46.95;103714.56;4908832;28;98136;-53
2022/01/13 01:36:51;;;;;;;20.50;14.73;;;12.50;95.70;;;13.32;46.97;103726.94;4916895;28;103330;-49
2022/01/13 01:39:17;;;;;;;25.30;18.17;;;12.40;95.90;;;13.21;46.99;103728.69;4906280;28;96992;-48
2022/01/13 01:41:50;;;;;;;26.90;18.90;;;12.30;95.50;;;13.11;47.32;103726.84;4914580;28;97188;-53
2022/01/13 01:44:32;;;;;;;31.77;22.87;;;12.10;96.40;;;12.98;46.83;103719.75;4909784;28;97410;-47
2022/01/13 01:47:00;;;;;;;17.37;13.67;;;11.90;96.20;;;12.92;48.11;103731.22;4905444;28;97611;-50
2022/01/13 01:49:27;;;;;;;19.30;13.87;;;11.90;97.10;;;12.96;48.08;103726.81;4912890;28;97092;-48
2022/01/13 01:52:00;;;;;;;24.03;18.43;;;12.00;96.70;;;12.90;47.87;103724.16;4909345;28;99368;-53
2022/01/13 01:54:29;;;;;;;27.07;19.27;;;11.90;96.60;;;12.79;48.12;103727.66;4922271;28;103652;-46
2022/01/13 01:56:56;;;;;;;35.97;24.53;;;11.80;96.40;;;12.71;48.07;103726.72;4912373;28;117094;-47
2022/01/13 01:59:26;;;;;;;27.47;20.40;;;11.60;96.90;;;12.56;48.62;103737.25;4910661;28;96990;-52
2022/01/13 02:01:53;;;;;;;18.20;14.20;;;11.50;96.90;;;12.54;49.06;103728.41;4909540;28;97336;-47
2022/01/13 02:04:20;;;;;;;27.87;19.70;;;11.40;97.50;;;12.50;48.78;103721.34;4892087;28;99218;-52
2022/01/13 02:06:46;;;;;;;22.13;16.90;;;11.40;97.50;;;12.44;49.16;103721.28;4910080;28;97494;-49
2022/01/13 02:09:17;;;;;;;18.07;12.27;;;11.30;97.70;;;12.41;49.39;103715.97;4914777;28;96961;-49
2022/01/13 02:11:46;;;;;;;36.87;25.63;;;11.30;97.80;;;12.32;49.01;103723.91;4910845;28;97655;-49
2022/01/13 02:16:50;;;;;;;30.90;21.43;;;11.10;97.20;;;12.10;49.82;103721.09;4918881;28;96911;-46
2022/01/13 02:19:17;;;;;;;20.33;15.50;;;11.00;97.60;;;12.15;50.06;103729.06;4905768;28;96962;-48
2022/01/13 02:21:43;;;;;;;31.23;20.70;;;11.10;98.80;;;12.15;49.79;103718.47;4915477;28;97952;-51
2022/01/13 02:24:09;;;;;;;27.13;18.33;;;11.10;98.00;;;12.13;49.90;103715.81;4920141;28;97748;-52
2022/01/13 02:26:35;;;;;;;22.00;15.43;;;11.10;98.10;;;12.19;50.00;103715.88;4911385;28;98475;-50
2022/01/13 02:29:01;;;;;;;44.33;29.77;;;11.20;98.50;;;12.15;48.94;103711.47;4923901;28;97044;-49
2022/01/13 02:31:27;;;;;;;36.27;24.27;;;11.10;97.40;;;12.09;49.76;103703.47;4915653;28;118027;-48
2022/01/13 02:33:54;;;;;;;42.80;29.83;;;11.10;98.10;;;12.02;47.91;103701.66;4920640;28;107769;-49
2022/01/13 02:36:22;;;;;;;49.13;31.80;;;11.00;97.80;;;12.05;49.39;103709.63;4914583;28;97019;-49
2022/01/13 02:38:50;;;;;;;48.03;31.97;;;11.00;97.80;;;11.93;48.65;103696.31;4904389;28;96826;-48
2022/01/13 02:41:17;;;;;;;37.60;26.00;;;11.00;97.70;;;11.90;49.92;103705.09;4895401;28;98258;-51
2022/01/13 02:43:44;;;;;;;38.97;28.30;;;10.90;97.70;;;11.98;49.81;103704.25;4917663;28;99870;-45
2022/01/13 02:49:12;;;;;;;29.87;20.50;;;11.00;98.40;;;12.03;50.32;103697.25;4914463;28;96965;-47
2022/01/13 02:51:41;;;;;;;41.33;27.27;;;10.90;98.50;;;12.03;50.20;103703.44;4899205;28;97453;-48
2022/01/13 02:54:08;;;;;;;47.80;30.23;;;11.00;98.40;;;12.00;49.80;103695.44;4914180;28;97327;-47
2022/01/13 02:56:35;;;;;;;47.47;30.10;;;10.90;98.00;;;11.98;50.02;103694.56;4916600;28;96821;-50
2022/01/13 02:59:01;;;;;;;37.57;24.23;;;10.90;98.20;;;12.10;50.37;103688.47;4911242;28;96971;-50
2022/01/13 03:01:27;;;;;;;45.50;29.37;;;11.00;99.00;;;12.26;49.97;103689.44;4913770;28;100962;-50
2022/01/13 03:03:53;;;;;;;32.17;22.23;;;11.30;99.10;;;12.37;49.61;103693.03;4914958;28;99158;-45
2022/01/13 03:06:28;;;;;;;43.17;27.97;;;11.50;98.50;;;12.51;49.24;103688.69;4911737;28;100151;-49
2022/01/13 03:08:54;;;;;;;46.03;28.40;;;11.70;97.50;;;12.64;48.87;103687.84;4917399;28;97422;-47
2022/01/13 03:11:23;;;;;;;41.73;27.10;;;11.80;97.30;;;12.73;48.73;103687.91;4905133;28;99438;-49
2022/01/13 03:13:49;;;;;;;39.97;25.77;;;11.90;98.30;;;12.84;48.49;103682.59;4919055;28;97238;-51
2022/01/13 03:16:16;;;;;;;34.70;24.90;;;12.10;97.60;;;12.90;48.03;103687.06;4910272;28;104522;-46
2022/01/13 03:18:42;;;;;;;44.50;29.13;;;12.10;96.10;;;12.81;47.58;103680.84;4897053;28;106097;-49
2022/01/13 03:21:08;;;;;;;39.23;26.33;;;12.00;96.20;;;12.76;48.49;103677.31;4907391;28;100536;-48
2022/01/13 03:23:36;;;;;;;32.97;23.90;;;11.80;97.00;;;12.71;48.32;103684.34;4911804;28;97328;-50
2022/01/13 03:26:03;;;;;;;29.53;20.10;;;11.70;97.10;;;12.70;48.86;103677.28;4895022;28;97455;-46
2022/01/13 03:28:30;;;;;;;21.50;15.20;;;11.60;98.30;;;12.73;48.82;103677.31;4914459;28;97033;-50
2022/01/13 03:31:02;;;;;;;39.30;25.27;;;11.70;98.00;;;12.74;48.33;103676.41;4931592;28;99886;-48
2022/01/13 03:33:28;;;;;;;42.90;28.43;;;11.70;96.70;;;12.74;48.16;103678.19;4909253;28;100157;-49
2022/01/13 03:35:55;;;;;;;23.73;17.43;;;11.70;96.40;;;12.76;48.71;103687.03;4922610;28;97076;-46
2022/01/13 03:38:21;;;;;;;21.60;15.27;;;11.70;97.40;;;12.76;48.77;103693.19;4909054;28;97275;-48
2022/01/13 03:40:48;;;;;;;33.17;21.90;;;11.70;97.30;;;12.80;48.65;103694.97;4920627;28;100609;-51
2022/01/13 03:43:16;;;;;;;35.40;23.83;;;11.80;97.40;;;12.87;48.52;103697.63;4910964;28;97238;-49
2022/01/13 03:45:43;;;;;;;26.93;19.13;;;11.90;97.60;;;12.87;48.52;103694.97;4941394;28;97264;-51
2022/01/13 03:48:09;;;;;;;43.00;27.03;;;11.90;97.00;;;12.84;48.44;103700.28;4908301;28;97424;-51
2022/01/13 03:50:36;;;;;;;34.03;22.37;;;11.90;96.70;;;12.82;48.46;103695.84;4922051;28;97430;-48
2022/01/13 03:53:02;;;;;;;48.37;31.50;;;11.80;96.90;;;12.76;48.19;103692.31;4910756;28;98163;-53
2022/01/13 03:55:38;;;;;;;32.40;21.70;;;11.80;97.10;;;12.72;48.26;103694.03;4919585;28;96922;-50
2022/01/13 03:58:41;;;;;;;30.33;18.80;;;11.60;96.90;;;12.69;48.58;103696.69;4912001;28;96861;-49
2022/01/13 04:01:51;;;;;;;40.03;24.50;;;11.60;97.40;;;12.56;48.82;103688.69;4910129;28;99381;-49
2022/01/13 04:04:17;;;;;;;30.87;21.30;;;11.40;97.30;;;12.51;48.94;103688.69;4906662;28;99201;-55
2022/01/13 04:06:45;;;;;;;39.63;26.60;;;11.40;97.90;;;12.48;48.80;103688.69;4913590;28;97167;-53
2022/01/13 04:09:46;;;;;;;25.80;17.90;;;11.30;97.70;;;12.50;49.28;103689.56;4903643;28;100274;-47
2022/01/13 04:12:14;;;;;;;37.00;25.40;;;11.40;98.00;;;12.49;49.04;103687.78;4894348;28;96910;-54
2022/01/13 04:17:19;;;;;;;46.10;29.90;;;11.50;98.20;;;12.60;48.89;103686.09;4920096;28;97597;-47
2022/01/13 04:19:46;;;;;;;46.17;30.17;;;11.60;98.90;;;12.67;48.36;103690.50;4909038;28;97662;-48
2022/01/13 04:22:13;;;;;;;43.60;29.83;;;11.80;96.80;;;12.74;48.77;103689.66;4905964;28;100128;-49
2022/01/13 04:24:50;;;;;;;42.10;27.13;;;11.90;97.80;;;12.74;48.42;103688.78;4908109;28;97740;-46
2022/01/13 04:27:22;;;;;;;20.87;14.50;;;11.90;96.90;;;12.78;48.64;103683.50;4909179;28;97097;-53
2022/01/13 04:29:59;;;;;;;38.77;27.03;;;11.90;97.70;;;12.87;48.31;103684.38;4909215;28;97270;-52
2022/01/13 04:32:25;;;;;;;30.17;19.77;;;12.00;97.40;;;12.89;48.30;103680.00;4916635;28;103474;-52
2022/01/13 04:34:51;;;;;;;42.53;28.83;;;12.10;96.60;;;12.88;48.16;103683.53;4910337;28;98128;-48
2022/01/13 04:37:17;;;;;;;47.07;30.03;;;12.00;97.50;;;12.91;47.99;103675.56;4924492;28;97527;-55
2022/01/13 04:39:43;;;;;;;51.33;31.47;;;12.10;97.00;;;12.98;47.97;103674.69;4912476;28;119923;-48
2022/01/13 04:42:10;;;;;;;45.60;30.40;;;12.20;97.10;;;12.97;47.97;103670.28;4905543;28;97623;-53
2022/01/13 04:44:36;;;;;;;42.47;28.97;;;12.10;97.00;;;12.94;47.81;103673.81;4922846;28;97746;-53
2022/01/13 04:47:07;;;;;;;27.53;19.20;;;12.10;96.90;;;12.99;47.78;103669.38;4915688;28;97108;-49
2022/01/13 04:49:33;;;;;;;40.10;28.13;;;12.20;98.00;;;13.01;47.75;103667.63;4907355;28;97297;-48
2022/01/13 04:51:59;;;;;;;35.03;23.70;;;12.20;96.70;;;13.03;47.34;103654.41;4916818;28;100694;-46
2022/01/13 04:54:25;;;;;;;43.07;30.03;;;12.30;95.70;;;12.99;47.74;103657.91;4925821;28;104288;-47
2022/01/13 04:59:17;;;;;;;43.37;29.20;;;12.20;97.90;;;13.07;47.54;103656.16;4907568;28;97123;-46
2022/01/13 05:01:43;;;;;;;45.57;30.67;;;12.40;97.50;;;13.11;47.42;103652.63;4914310;28;100723;-51
2022/01/13 05:04:09;;;;;;;47.93;30.47;;;12.50;96.60;;;13.17;47.40;103654.44;4907434;28;101990;-50
2022/01/13 05:06:35;;;;;;;48.13;31.80;;;12.50;95.90;;;13.23;47.06;103646.50;4920143;28;97374;-49
2022/01/13 05:09:02;;;;;;;45.83;31.47;;;12.60;96.40;;;13.22;46.95;103661.53;4909844;28;99082;-53
2022/01/13 05:11:28;;;;;;;45.67;31.23;;;12.50;95.90;;;13.25;46.88;103666.81;4916977;28;101705;-51
2022/01/13 05:13:54;;;;;;;41.23;31.93;;;12.60;95.60;;;13.29;46.94;103652.66;4904154;28;97351;-46
2022/01/13 05:24:10;;;;;;;38.53;27.57;;;12.60;95.90;;;13.28;46.73;103671.22;4906670;28;97325;-52
2022/01/13 05:26:36;;;;;;;42.70;28.87;;;12.50;95.30;;;13.22;47.16;103658.88;4910067;28;102772;-48
2022/01/13 05:29:03;;;;;;;42.77;28.43;;;12.40;96.40;;;13.09;46.88;103654.41;4908688;28;97502;-49
2022/01/13 05:31:29;;;;;;;24.17;17.70;;;12.20;95.10;;;13.00;47.64;103652.59;4908179;28;100141;-48
2022/01/13 05:33:55;;;;;;;36.03;26.90;;;12.00;96.00;;;12.99;47.56;103663.22;4924767;28;99116;-52
2022/01/13 05:36:21;;;;;;;26.67;18.73;;;12.00;97.20;;;12.96;47.67;103657.91;4908102;28;97050;-51
2022/01/13 05:38:47;;;;;;;40.20;29.07;;;12.00;96.40;;;12.78;47.39;103649.06;4915318;28;97485;-49
2022/01/13 05:41:13;;;;;;;30.83;22.73;;;11.80;95.70;;;12.75;47.95;103648.16;4902939;28;100661;-52
2022/01/13 05:43:39;;;;;;;46.60;30.63;;;11.70;96.90;;;12.58;47.85;103642.78;4912235;28;123166;-55
2022/01/13 05:46:05;;;;;;;37.43;25.67;;;11.50;96.50;;;12.48;48.58;103638.38;4903303;28;96895;-50
2022/01/13 05:48:31;;;;;;;41.73;28.13;;;11.40;97.00;;;12.39;48.51;103633.03;4935210;28;96934;-51
2022/01/13 05:50:59;;;;;;;31.10;22.40;;;11.20;97.00;;;12.23;48.85;103636.50;4906916;28;97485;-49
2022/01/13 05:53:24;;;;;;;39.17;26.97;;;11.00;97.40;;;12.07;49.04;103640.81;4902033;28;98042;-49
2022/01/13 05:55:50;;;;;;;34.00;24.30;;;10.80;97.40;;;11.99;49.89;103632.81;4910339;28;96959;-46
2022/01/13 05:58:16;;;;;;;31.20;22.40;;;10.80;98.40;;;12.08;49.98;103638.19;4910045;28;98396;-46
2022/01/13 06:00:42;;;;;;;49.03;31.57;;;10.90;98.50;;;12.16;49.87;103647.06;4911504;28;97017;-49
2022/01/13 06:03:10;;;;;;;43.90;29.47;;;11.20;98.60;;;12.25;49.72;103643.56;4934759;28;97844;-47
2022/01/13 06:05:35;;;;;;;44.07;29.60;;;11.30;98.20;;;12.30;49.55;103648.91;4913215;28;99998;-53
2022/01/13 06:08:02;;;;;;;29.77;20.77;;;11.40;97.50;;;12.35;49.53;103641.84;4909996;28;97563;-50
2022/01/13 06:10:28;;;;;;;39.67;28.00;;;11.50;98.00;;;12.47;49.14;103652.50;4909856;28;97465;-52
2022/01/13 06:12:54;;;;;;;46.77;29.73;;;11.60;97.60;;;12.52;48.59;103646.31;4912130;28;97129;-54
2022/01/13 06:15:23;;;;;;;42.00;27.83;;;11.70;96.10;;;12.51;48.34;103643.66;4907815;28;97717;-53
2022/01/13 06:17:54;;;;;;;44.33;30.03;;;11.60;96.30;;;12.51;48.90;103644.56;4918840;28;97103;-48
2022/01/13 06:20:22;;;;;;;39.00;27.67;;;11.50;98.80;;;12.58;48.37;103640.13;4910437;28;99870;-50
2022/01/13 06:22:50;;;;;;;31.70;22.43;;;11.70;96.90;;;12.53;48.88;103644.56;4911769;28;97357;-50
2022/01/13 06:25:17;;;;;;;26.80;19.03;;;11.60;97.10;;;12.58;48.66;103640.13;4908599;28;96960;-46
2022/01/13 06:27:43;;;;;;;31.67;21.37;;;11.60;98.00;;;12.65;48.55;103647.25;4912657;28;97439;-48
2022/01/13 06:30:14;;;;;;;29.50;20.33;;;11.80;96.90;;;12.59;48.60;103646.34;4916172;28;97584;-46
2022/01/13 06:32:41;;;;;;;48.43;31.93;;;11.70;96.70;;;12.49;47.53;103650.72;4897760;28;98223;-50
2022/01/13 06:35:08;;;;;;;38.43;27.67;;;11.50;96.60;;;12.43;48.74;103646.28;4904265;28;96958;-51
2022/01/13 06:37:34;;;;;;;46.20;32.83;;;11.40;97.30;;;12.25;47.25;103642.66;4910287;28;96862;-50
2022/01/13 06:40:02;;;;;;;32.80;24.13;;;11.30;96.70;;;12.20;49.23;103635.59;4910085;28;102424;-50
2022/01/13 06:42:28;;;;;;;37.27;26.30;;;11.10;97.50;;;12.13;49.35;103639.09;4920601;28;97385;-52
2022/01/13 06:44:54;;;;;;;28.13;19.47;;;11.00;97.50;;;12.09;49.90;103637.31;4911698;28;97421;-54
2022/01/13 06:47:20;;;;;;;22.73;15.70;;;11.00;98.30;;;12.15;49.72;103633.78;4900599;28;98634;-53
2022/01/13 06:49:45;;;;;;;19.03;14.77;;;11.10;98.60;;;12.20;49.69;103627.66;4906428;28;99211;-48
2022/01/13 06:52:11;;;;;;;38.57;27.53;;;11.20;98.70;;;12.33;49.14;103643.59;4897930;28;98562;-49
2022/01/13 06:54:37;;;;;;;20.97;15.33;;;11.50;97.20;;;12.43;49.30;103653.34;4904253;28;98106;-49
2022/01/13 06:57:03;;;;;;;30.77;23.63;;;11.60;98.30;;;12.52;48.50;103651.63;4900477;28;114731;-47
2022/01/13 06:59:29;;;;;;;19.03;13.87;;;11.70;97.20;;;12.59;48.83;103647.25;4891355;28;97071;-46
2022/01/13 07:01:56;;;;;;;20.13;14.67;;;11.80;98.50;;;12.67;48.73;103649.88;4909624;28;107158;-51
2022/01/13 07:04:22;;;;;;;23.17;17.57;;;11.90;97.70;;;12.75;48.36;103654.34;4906798;28;97814;-47
2022/01/13 07:06:48;;;;;;;34.13;24.97;;;12.00;96.70;;;12.82;48.00;103650.81;4910010;28;96997;-48
2022/01/13 07:09:17;;;;;;;15.10;13.13;;;12.10;95.90;;;12.89;48.03;103650.84;4909033;28;98840;-45
2022/01/13 07:11:44;;;;;;;18.93;13.87;;;12.10;97.40;;;12.87;48.16;103664.06;4913416;28;97062;-48
2022/01/13 07:14:09;;;;;;;34.07;23.47;;;12.00;97.50;;;12.95;47.53;103662.31;4913398;28;97293;-54
2022/01/13 07:16:36;;;;;;;22.47;17.73;;;12.20;96.50;;;12.99;47.88;103663.22;4910971;28;97703;-51
2022/01/13 07:19:05;;;;;;;19.80;16.17;;;12.20;96.60;;;13.03;47.69;103654.41;4925231;28;100008;-52
2022/01/13 07:21:33;;;;;;;16.30;13.47;;;12.20;96.10;;;12.96;47.88;103660.56;4916511;28;102111;-49
2022/01/13 07:23:59;;;;;;;27.57;20.97;;;12.00;97.20;;;12.94;46.45;103667.63;4917571;28;97106;-52
2022/01/13 07:26:25;;;;;;;30.23;22.30;;;12.00;96.80;;;12.79;48.31;103669.34;4907389;28;97158;-52
2022/01/13 07:28:50;;;;;;;22.50;17.17;;;11.80;96.70;;;12.65;48.57;103667.56;4909830;28;100135;-51
2022/01/13 07:31:17;;;;;;;18.37;13.97;;;11.60;97.80;;;12.65;48.60;103672.84;4908537;28;104614;-50
2022/01/13 07:33:43;;;;;;;16.73;13.10;;;11.60;98.10;;;12.72;48.60;103670.22;4911066;28;97279;-51
2022/01/13 07:36:10;;;;;;;42.83;31.03;;;11.70;98.90;;;12.71;45.82;103671.09;4909040;28;97426;-47
2022/01/13 07:38:36;;;;;;;20.20;16.00;;;11.90;96.10;;;12.81;48.28;103675.53;4910713;28;110519;-52
2022/01/13 07:41:02;;;;;;;21.53;16.77;;;12.00;97.50;;;12.94;47.96;103679.13;4912153;28;97314;-53
2022/01/13 07:43:28;;;;;;;25.70;20.00;;;12.20;96.50;;;12.95;47.62;103682.66;4910932;28;97473;-51
2022/01/13 07:45:54;;;;;;;22.53;17.43;;;12.20;95.70;;;12.96;47.81;103687.06;4912324;28;97099;-49
2022/01/13 07:48:21;;;;;;;37.50;30.30;;;12.20;96.50;;;12.81;47.69;103691.44;4907221;28;114337;-51
2022/01/13 07:50:48;;;;;;;25.37;19.97;;;12.00;96.30;;;12.71;47.75;103689.63;4910324;28;97151;-48
2022/01/13 07:53:15;;;;;;;21.37;16.00;;;11.80;96.30;;;12.72;48.51;103691.41;4908881;28;97039;-48
2022/01/13 07:55:42;;;;;;;18.37;15.13;;;11.70;97.40;;;12.73;48.48;103694.94;4919348;28;97606;-48
2022/01/13 07:58:09;;;;;;;16.43;12.87;;;11.70;97.70;;;12.79;48.28;103697.63;4909742;28;97598;-50
2022/01/13 08:00:35;;;;;;;15.63;12.83;;;11.90;98.00;;;12.82;48.42;103698.50;4902939;28;97714;-50
2022/01/13 08:03:01;;;;;;;15.27;12.50;;;12.00;98.40;;;13.00;48.09;103702.06;4909873;28;97767;-53
2022/01/13 08:05:28;;;;;;;16.47;12.60;;;12.30;98.10;;;13.25;47.44;103697.75;4907753;28;96941;-49
2022/01/13 08:07:54;;;;;;;38.10;27.37;;;12.80;97.40;;;13.23;46.65;103700.41;4911600;28;97703;-46
2022/01/13 08:10:20;;;;;;;37.30;25.80;;;12.80;94.20;;;13.06;47.34;103712.72;4898380;28;98204;-51
2022/01/13 08:12:46;;;;;;;15.23;12.70;;;12.30;95.00;;;12.99;47.66;103716.22;4919150;28;97260;-47
2022/01/13 08:15:14;;;;;;;35.43;27.00;;;12.10;97.20;;;12.87;45.50;103710.88;4907284;28;97121;-49
2022/01/13 08:20:32;;;;;;;18.87;14.23;;;12.30;97.80;;;13.13;47.51;103714.47;4907985;28;99861;-50
2022/01/13 08:22:58;;;;;;;16.37;13.13;;;12.60;96.70;;;13.28;47.41;103714.53;4910646;28;96947;-50
2022/01/13 08:25:25;;;;;;;26.03;20.03;;;12.70;96.80;;;13.30;46.58;103714.53;4908982;28;97699;-51
2022/01/13 08:31:31;;;;;;;13.97;12.03;;;12.60;96.60;;;13.34;46.73;103708.38;4888771;28;101232;-50
2022/01/13 08:33:57;;;;;;;23.40;17.30;;;12.80;96.80;;;13.40;46.67;103703.94;4905563;28;111560;-49
2022/01/13 08:36:23;;;;;;;23.83;17.50;;;12.80;95.00;;;13.37;46.62;103705.72;4914748;28;96955;-50
2022/01/13 08:38:49;;;;;;;14.57;12.63;;;12.80;94.70;;;13.47;46.53;103714.56;4911873;28;100255;-48
2022/01/13 08:41:16;;;;;;;15.83;11.87;;;12.90;96.70;;;13.68;46.09;103710.16;4903092;28;100233;-51
2022/01/13 08:43:42;;;;;;;15.13;12.37;;;13.20;96.30;;;13.86;45.61;103714.53;4892793;28;97493;-47
2022/01/13 08:46:08;;;;;;;15.60;13.20;;;13.60;95.10;;;13.84;45.81;103708.34;4911142;28;96942;-47
2022/01/13 08:48:35;;;;;;;15.80;11.77;;;13.50;94.20;;;13.87;45.62;103711.00;4912452;28;97530;-47
2022/01/13 08:51:03;;;;;;;15.30;12.80;;;13.50;94.70;;;13.79;45.67;103718.09;4922593;28;97327;-50
2022/01/13 08:53:30;;;;;;;25.07;18.37;;;13.30;94.30;;;13.86;45.48;103716.31;4914578;28;96930;-48
2022/01/13 08:55:58;;;;;;;31.27;24.43;;;13.40;93.40;;;13.68;45.27;103714.56;4912483;28;98673;-45
2022/01/13 08:58:24;;;;;;;16.00;13.03;;;13.00;93.20;;;13.60;46.18;103713.69;4907025;28;98995;-49
2022/01/13 09:00:52;;;;;;;16.37;12.27;;;12.80;96.30;;;13.68;46.06;103714.56;4916315;28;97489;-50
2022/01/13 09:03:18;;;;;;;26.50;21.17;;;13.00;96.20;;;13.71;44.65;103725.16;4907534;28;97538;-51
2022/01/13 09:05:44;;;;;;;22.60;18.53;;;13.20;93.40;;;13.76;45.94;103718.13;4914171;28;97523;-49
2022/01/13 09:08:12;;;;;;;13.53;11.07;;;13.20;93.80;;;13.65;46.04;103715.47;4908200;28;97181;-48
2022/01/13 09:10:42;;;;;;;14.47;11.33;;;13.10;95.80;;;13.83;46.10;103718.97;4916598;28;96920;-49
2022/01/13 09:13:15;;;;;;;14.30;11.87;;;13.30;96.10;;;14.08;45.34;103718.06;4911327;28;96812;-53
2022/01/13 09:15:51;;;;;;;12.80;11.03;;;13.80;95.40;;;14.34;44.65;103717.13;4912932;28;99688;-53
2022/01/13 09:18:31;;;;;;;14.40;11.60;;;14.30;94.50;;;14.53;44.14;103725.03;4906765;28;97707;-53
2022/01/13 09:20:58;;;;;;;12.97;11.23;;;14.60;94.20;;;14.56;43.78;103735.66;4912323;28;98244;-52
2022/01/13 09:23:24;;;;;;;13.80;11.67;;;14.60;92.90;;;14.66;43.82;103725.00;4903410;28;97021;-47
2022/01/13 09:25:50;;;;;;;13.77;11.27;;;14.70;92.80;;;14.63;43.71;103735.66;4917673;28;96793;-46
2022/01/13 09:28:16;;;;;;;17.20;13.57;;;14.50;93.60;;;14.59;43.64;103735.63;4910515;28;97802;-49
2022/01/13 09:30:42;;;;;;;25.23;19.00;;;14.40;92.10;;;14.47;44.06;103735.72;4918765;28;98313;-49
2022/01/13 09:33:08;;;;;;;25.00;17.43;;;14.20;93.30;;;14.51;44.04;103742.78;4899726;28;96908;-52
2022/01/13 09:35:34;;;;;;;13.43;11.63;;;14.20;93.60;;;14.41;44.71;103741.00;4909670;28;97301;-52
2022/01/13 09:38:02;;;;;;;26.00;19.83;;;14.00;94.30;;;14.33;44.43;103741.91;4919780;28;99038;-46
2022/01/13 09:40:28;;;;;;;27.27;20.80;;;13.80;92.80;;;14.22;43.36;103733.97;4906229;28;101288;-48
2022/01/13 09:42:54;;;;;;;13.53;12.07;;;13.60;92.80;;;14.16;45.21;103736.63;4919175;28;97306;-52
2022/01/13 09:45:22;;;;;;;27.90;22.73;;;13.50;95.60;;;14.16;45.02;103739.28;4921324;28;97481;-51
2022/01/13 09:47:50;;;;;;;16.37;13.30;;;13.60;93.70;;;14.15;45.37;103735.72;4913979;28;97593;-50
2022/01/13 09:50:20;;;;;;;14.23;11.47;;;13.60;94.00;;;14.32;44.83;103735.72;4904810;28;99556;-46
2022/01/13 09:52:48;;;;;;;13.33;11.20;;;13.90;94.80;;;14.51;44.44;103740.13;4913330;28;97410;-47
2022/01/13 09:55:15;;;;;;;14.83;11.30;;;14.40;94.20;;;14.74;43.64;103733.81;4906840;28;96907;-45
2022/01/13 09:57:50;;;;;;;27.27;20.87;;;14.70;93.60;;;14.84;41.48;103740.84;4929631;28;100645;-51
2022/01/13 10:00:21;;;;;;;14.20;12.10;;;14.90;90.60;;;14.65;43.89;103749.81;4905118;28;97648;-48
2022/01/13 10:02:47;;;;;;;42.90;28.77;;;14.40;93.30;;;14.56;43.43;103745.41;4912187;28;96799;-48
2022/01/13 10:05:19;;;;;;;13.90;11.60;;;14.30;91.60;;;14.41;44.33;103748.97;4906307;28;97059;-47
2022/01/13 10:07:49;;;;;;;15.30;12.00;;;13.90;94.70;;;14.48;44.37;103748.09;4911846;28;98312;-49
2022/01/13 10:10:19;;;;;;;24.37;18.70;;;14.10;94.40;;;14.42;44.17;103748.06;4909676;28;99440;-51
2022/01/13 10:12:49;;;;;;;13.97;11.67;;;14.10;92.60;;;14.39;44.43;103748.09;4906669;28;97415;-50
2022/01/13 10:18:06;;;;;;;16.13;13.03;;;13.90;95.00;;;14.43;44.69;103743.63;4902434;28;96741;-45
2022/01/13 10:20:33;;;;;;;16.93;13.13;;;14.10;94.10;;;14.28;44.70;103739.25;4909005;28;98375;-48
2022/01/13 10:23:10;;;;;;;24.20;18.30;;;13.90;93.60;;;14.25;44.49;103739.25;4912966;28;97644;-49
2022/01/13 10:25:39;;;;;;;45.27;30.93;;;13.80;92.40;;;13.90;43.04;103737.56;4904284;28;98970;-47
2022/01/13 10:28:20;;;;;;;15.60;12.97;;;13.30;92.10;;;13.84;45.93;103742.84;4888405;28;98842;-47
2022/01/13 10:30:50;;;;;;;42.37;29.80;;;13.00;95.80;;;13.62;44.92;103743.75;4919758;28;98686;-51
2022/01/13 10:33:21;;;;;;;16.07;13.07;;;12.80;93.10;;;13.70;46.05;103744.63;4910818;28;97352;-47
2022/01/13 10:35:50;;;;;;;15.97;12.70;;;12.90;96.50;;;13.92;45.48;103738.44;4908495;28;97446;-49
2022/01/13 10:38:17;;;;;;;15.03;13.20;;;13.50;96.20;;;14.16;45.07;103729.53;4906582;28;100371;-49
2022/01/13 10:40:49;;;;;;;14.00;11.97;;;14.00;94.90;;;14.41;44.56;103733.03;4927664;28;97289;-50
2022/01/13 10:43:32;;;;;;;35.27;26.10;;;14.40;94.20;;;14.47;43.87;103730.41;4934952;28;97405;-45
2022/01/13 10:45:58;;;;;;;16.30;12.73;;;14.50;91.30;;;14.47;44.35;103727.75;4926292;28;108178;-49